Kekaha, HI

11:41 PM HST on September 22, 2014 (GMT -1000)
Kalaeloa (John Rodgers Field) | Change Station
CLOSE
Current Station
Airport
Location: Kalaeloa,
Elevation: 49 ft
Nearby Weather Stations

Elev 49 ft 21.31 °N, 158.07 °W | Updated 48 minutes ago

Clear
Clear
80 °F
Feels Like 83 °F
N
5
Wind Variable Wind from Variable

Today
High -- | Low -- °F
--% Chance of Precip.
Yesterday
High -- | Low -- °F
Precip. -- in
6:27 AM 6:34 PM
Waning Crescent, 1% visible
Pressure 30.09 in
Visibility 10.0 miles
Clouds Clear
Heat Index 83 °F
Dew Point 68 °F
Humidity 67%
Rainfall 0.00 in
Snow Depth Not available.
UV 0 out of 12
Pollen Not available.
Air Quality Not available.
Flu Activity Not available.
METAR PHJR 230853Z AUTO VRB04KT 10SM CLR 27/20 A3007 RMK AO2 SLP189 T02670200 50006 TSNO

More Conditions Fewer Conditions

Pressure 30.09 in
Visibility 10.0 miles
Clouds Clear
Heat Index 83 °F
Dew Point 68 °F
Humidity 67%
Rainfall 0.00 in
Snow Depth Not available.
UV 0 out of 12
Pollen Not available.
Air Quality Not available.
Flu Activity Not available.
METAR PHJR 230853Z AUTO VRB04KT 10SM CLR 27/20 A3007 RMK AO2 SLP189 T02670200 50006 TSNO

More Conditions Fewer Conditions

10-Day Weather Forecast

Almanac

Astronomy

Sep. 22, 2014 Rise Set
Actual Time 6:27 AM HST 6:34 PM HST
Civil Twilight 6:05 AM HST 6:57 PM HST
Nautical Twilight 5:39 AM HST 7:23 PM HST
Astronomical Twilight 5:13 AM HST 7:49 PM HST
Moon 5:13 AM HST (9/22) 5:45 PM HST (9/22)
Length of Visible Light 12h 51m
Length of Day
12h 07m
Tomorrow will be 1m 15s shorter.
Waning Crescent, 1% of the Moon is Illuminated
Sep 23
Waning Crescent
Sep 24
New
Oct 1
First Quarter
Oct 8
Full
Oct 15
Last Quarter

Yesterday's Extremes

State Highs State Lows

Community

WunderPhotos

Upload Photos

1,755,644 photos uploaded!

Nearby

Snow Depth

Station Depth Elevation
No new snow has been reported.

Earthquake Activity

City Distance Mag. Time & Date
No recent earthquake activity has been reported nearby.
Minimum magnitude displayed is 2.5.

Coastal Water Temperatures

Place Temperature
No Stations Reporting

Nearby Weather Stations